Watertown, SD (57201)

9:15 PM CST on February 09, 2016 (GMT -0600)
East side of Watertown, SD | | Change Station
CLOSE
Current Station
Personal Weather Station
Location: Watertown, SD
Elevation: 1732 ft
Nearby Weather Stations

Elev 1732 ft 44.89 °N, 97.09 °W | Updated 7 minutes ago

Overcast
Overcast
19.7 °F
Feels Like 14 °F
N
4.2
Wind Variable Wind from ESE

Today
High -- | Low -- °F
--% Chance of Precip.
Yesterday
High -- | Low -- °F
Precip. -- in
Pressure 30.22 in
Visibility 10.0 miles
Clouds Overcast 5000 ft
Windchill 14 °F
Dew Point 15 °F
Humidity 83%
Rainfall 0.00 in
Snow Depth Not available.
7:38 AM 5:47 PM
Waxing Crescent, 3% visible
METAR KATY 100253Z AUTO 05004KT 10SM OVC050 M07/M13 A3011 RMK AO2 SLP233 T10721128 58015
Pressure 30.22 in
Visibility 10.0 miles
Clouds Overcast 5000 ft
Windchill 14 °F
Dew Point 15 °F
Humidity 83%
Rainfall 0.00 in
Snow Depth Not available.
7:38 AM 5:47 PM
Waxing Crescent, 3% visible
METAR KATY 100253Z AUTO 05004KT 10SM OVC050 M07/M13 A3011 RMK AO2 SLP233 T10721128 58015

10-Day Weather Forecast

Almanac

Astronomy

Feb. 09, 2016 Rise Set
Actual Time
Civil Twilight
Nautical Twilight
Astronomical Twilight
Moon
Length of Visible Light
Length of Day
Tomorrow will be .
, % of the Moon is Illuminated

Today's Extremes

State Highs State Lows

Community

WunderPhotos

Upload Photos

1,891,788 photos uploaded!

WunderBlog® & News

Nearby

Air Quality

  Air Quality AQ Index Pollutant
Not available.

Snow Depth

Station Depth Elevation

Earthquake Activity

City Distance Mag. Time & Date
Minimum magnitude displayed is 2.5.

Coastal Water Temperatures

Place Temperature

Stations

Nearby Weather Stations

Station Location Temp. Windchill Dew Point Humidity Wind Precip. Elev Updated Type
                   

Watches & Warnings

There are currently no watches in effect.